createdAt,value
2019-04-22T00:02:20.717Z,5.88
2019-04-22T00:05:04.651Z,5.79
2019-04-22T00:07:48.537Z,5.73
2019-04-22T00:10:26.141Z,5.48
2019-04-22T00:13:02.875Z,5.73
2019-04-22T00:15:35.654Z,5.68
2019-04-22T00:18:14.444Z,5.57
2019-04-22T00:20:43.918Z,5.57
2019-04-22T00:23:19.860Z,5.61
2019-04-22T00:25:55.749Z,5.57
2019-04-22T00:28:25.016Z,5.66
2019-04-22T00:31:06.663Z,5.61
2019-04-22T00:33:35.385Z,5.57
2019-04-22T00:36:08.899Z,5.70
2019-04-22T00:38:44.251Z,5.57
2019-04-22T00:41:13.143Z,5.30
2019-04-22T00:43:48.164Z,5.30
2019-04-22T00:46:25.181Z,5.29
2019-04-22T00:49:30.476Z,5.26
2019-04-22T00:51:28.589Z,5.24
2019-04-22T00:54:04.171Z,5.29
2019-04-22T00:56:34.230Z,5.25
2019-04-22T00:59:07.001Z,5.18
2019-04-22T01:01:39.811Z,5.10
2019-04-22T01:04:24.184Z,5.09
2019-04-22T01:06:49.431Z,5.13
2019-04-22T01:09:16.888Z,5.17
2019-04-22T01:11:53.724Z,5.18
2019-04-22T01:14:29.739Z,5.10
2019-04-22T01:17:00.042Z,4.97
2019-04-22T01:19:47.120Z,4.95
2019-04-22T01:22:12.907Z,4.85
2019-04-22T01:24:40.234Z,4.78
2019-04-22T01:27:12.992Z,4.75
2019-04-22T01:29:46.591Z,4.67
2019-04-22T01:32:13.192Z,4.63
2019-04-22T01:34:52.717Z,4.59
2019-04-22T01:37:32.911Z,4.57
2019-04-22T01:40:12.628Z,4.50
2019-04-22T01:42:50.335Z,4.44
2019-04-22T01:45:17.785Z,4.43
2019-04-22T01:47:48.862Z,4.39
2019-04-22T01:50:27.729Z,4.43
2019-04-22T01:53:06.256Z,4.46
2019-04-22T01:55:42.094Z,4.43
2019-04-22T01:57:59.908Z,4.40
2019-04-22T02:00:40.216Z,4.60
2019-04-22T02:03:17.842Z,4.76
2019-04-22T02:05:46.870Z,4.61
2019-04-22T02:08:32.871Z,4.52
2019-04-22T02:10:54.591Z,4.47
2019-04-22T02:13:32.136Z,4.43
2019-04-22T02:16:07.232Z,4.38
2019-04-22T02:18:38.177Z,4.38
2019-04-22T02:21:09.568Z,4.36
2019-04-22T02:26:23.819Z,4.26
2019-04-22T02:28:47.556Z,4.19
2019-04-22T02:39:12.116Z,4.14
2019-04-22T02:41:54.836Z,4.15
2019-04-22T02:44:14.006Z,4.19
2019-04-22T02:47:14.109Z,4.20
2019-04-22T02:49:25.054Z,4.24
2019-04-22T02:52:14.574Z,4.19
2019-04-22T02:57:03.744Z,4.25
2019-04-22T02:59:32.574Z,4.25
2019-04-22T03:02:03.090Z,4.16
2019-04-22T03:04:37.415Z,4.15
2019-04-22T03:07:09.100Z,4.17
2019-04-22T03:09:47.744Z,4.17
2019-04-22T03:12:23.769Z,4.23
2019-04-22T03:17:29.287Z,4.23
2019-04-22T03:22:36.241Z,4.43
2019-04-22T03:25:43.823Z,4.53
2019-04-22T03:27:40.151Z,4.60
2019-04-22T03:35:37.083Z,5.10
2019-04-22T03:48:28.199Z,5.79
2019-04-22T03:51:11.856Z,5.91
2019-04-22T03:53:21.209Z,5.98
2019-04-22T03:55:56.843Z,6.12
2019-04-22T03:58:28.469Z,6.24
2019-04-22T04:04:01.006Z,6.48
2019-04-22T04:06:06.713Z,6.60
2019-04-22T04:11:30.339Z,6.89
2019-04-22T04:13:52.034Z,6.97
2019-04-22T04:21:37.122Z,7.41
2019-04-22T04:24:22.554Z,7.52
2019-04-22T04:29:26.317Z,7.76
2019-04-22T04:34:33.824Z,7.91
2019-04-22T04:37:14.974Z,7.77
2019-04-22T04:39:25.826Z,7.86
2019-04-22T04:42:16.194Z,7.94
2019-04-22T04:44:48.918Z,7.94
2019-04-22T04:47:17.607Z,8.03
2019-04-22T04:49:56.985Z,8.13
2019-04-22T04:54:59.435Z,8.28
2019-04-22T04:57:40.893Z,8.50
2019-04-22T05:00:26.159Z,8.73
2019-04-22T05:05:29.498Z,9.05
2019-04-22T05:07:48.475Z,9.07
2019-04-22T05:10:35.072Z,9.30
2019-04-22T05:15:31.279Z,9.65
2019-04-22T05:20:49.240Z,9.88
2019-04-22T05:23:05.763Z,9.99
2019-04-22T05:25:32.000Z,10.10
2019-04-22T05:28:11.720Z,10.36
2019-04-22T05:30:45.725Z,10.56
2019-04-22T05:33:14.268Z,10.57
2019-04-22T05:35:53.703Z,10.75
2019-04-22T05:38:33.141Z,11.02
2019-04-22T05:40:56.067Z,10.98
2019-04-22T05:43:35.562Z,11.03
2019-04-22T05:46:02.876Z,11.18
2019-04-22T05:48:44.978Z,11.40
2019-04-22T05:51:09.717Z,11.47
2019-04-22T05:53:48.212Z,11.56
2019-04-22T05:56:28.713Z,11.70
2019-04-22T05:58:58.336Z,11.73
2019-04-22T06:06:29.293Z,12.18
2019-04-22T06:09:07.178Z,12.22
2019-04-22T06:11:36.244Z,12.40
2019-04-22T06:14:13.938Z,12.49
2019-04-22T06:16:53.207Z,12.49
2019-04-22T06:19:25.120Z,12.53
2019-04-22T06:22:00.801Z,12.80
2019-04-22T06:24:32.041Z,13.08
2019-04-22T06:29:40.263Z,13.01
2019-04-22T06:32:26.528Z,13.13
2019-04-22T06:34:48.769Z,13.00
2019-04-22T06:37:23.505Z,13.04
2019-04-22T06:39:58.752Z,13.09
2019-04-22T06:45:07.308Z,13.55
2019-04-22T06:50:31.469Z,13.52
2019-04-22T06:52:49.951Z,13.77
2019-04-22T06:55:22.863Z,14.02
2019-04-22T06:57:55.082Z,14.07
2019-04-22T07:00:24.583Z,14.31
2019-04-22T07:03:26.896Z,14.29
2019-04-22T07:05:40.268Z,14.36
2019-04-22T07:08:18.305Z,14.72
2019-04-22T07:10:50.734Z,14.72
2019-04-22T07:13:17.401Z,15.02
2019-04-22T07:15:50.432Z,14.76
2019-04-22T07:18:26.947Z,14.44
2019-04-22T07:20:56.636Z,14.72
2019-04-22T07:23:27.111Z,14.77
2019-04-22T07:26:18.297Z,15.05
2019-04-22T07:28:29.477Z,15.08
2019-04-22T07:31:12.978Z,15.37
2019-04-22T07:33:43.776Z,15.20
2019-04-22T07:36:50.653Z,15.46
2019-04-22T07:38:43.845Z,15.44
2019-04-22T07:41:20.069Z,15.44
2019-04-22T07:46:36.977Z,15.71
2019-04-22T07:49:06.570Z,15.60
2019-04-22T07:51:36.727Z,15.92
2019-04-22T07:54:16.299Z,16.09
2019-04-22T07:56:47.015Z,16.18
2019-04-22T07:59:15.254Z,16.33
2019-04-22T08:02:01.988Z,15.97
2019-04-22T08:07:30.167Z,16.10
2019-04-22T08:09:57.975Z,16.10
2019-04-22T08:12:18.889Z,16.09
2019-04-22T08:14:53.801Z,16.01
2019-04-22T08:22:37.552Z,16.22
2019-04-22T08:25:14.574Z,16.35
2019-04-22T08:27:53.277Z,16.51
2019-04-22T08:30:28.358Z,16.05
2019-04-22T08:33:15.853Z,16.29
2019-04-22T08:35:52.449Z,16.04
2019-04-22T08:38:09.627Z,16.17
2019-04-22T08:40:50.040Z,16.41
2019-04-22T08:43:27.198Z,16.50
2019-04-22T08:45:54.549Z,16.65
2019-04-22T08:48:33.065Z,16.78
2019-04-22T08:51:21.058Z,16.85
2019-04-22T08:54:00.348Z,17.01
2019-04-22T08:56:32.439Z,16.67
2019-04-22T09:01:46.958Z,16.83
2019-04-22T09:04:16.593Z,16.71
2019-04-22T09:09:33.932Z,16.98
2019-04-22T09:12:08.203Z,17.28
2019-04-22T09:14:41.989Z,17.28
2019-04-22T09:17:21.382Z,17.22
2019-04-22T09:19:58.347Z,17.79
2019-04-22T09:22:21.866Z,17.37
2019-04-22T09:25:03.823Z,17.26
2019-04-22T09:27:48.492Z,17.62
2019-04-22T09:30:25.999Z,17.83
2019-04-22T09:32:58.752Z,17.43
2019-04-22T09:35:23.426Z,17.41
2019-04-22T09:38:16.967Z,17.71
2019-04-22T09:40:30.110Z,17.63
2019-04-22T09:43:11.381Z,18.18
2019-04-22T09:45:43.006Z,18.26
2019-04-22T09:50:47.892Z,18.03
2019-04-22T09:53:31.089Z,17.65
2019-04-22T09:55:56.738Z,17.61
2019-04-22T09:58:32.104Z,18.27
2019-04-22T10:01:18.680Z,17.68
2019-04-22T10:03:51.706Z,18.15
2019-04-22T10:06:29.355Z,18.80
2019-04-22T10:11:50.614Z,19.01
2019-04-22T10:14:28.216Z,19.04
2019-04-22T10:17:04.971Z,19.30
2019-04-22T10:19:41.179Z,19.40
2019-04-22T10:24:57.069Z,20.43
2019-04-22T10:27:28.748Z,21.23
2019-04-22T10:30:13.016Z,21.73
2019-04-22T10:32:47.577Z,21.31
2019-04-22T10:35:18.914Z,23.00
2019-04-22T10:37:48.210Z,23.41
2019-04-22T10:40:25.632Z,23.61
2019-04-22T10:42:59.477Z,23.51
2019-04-22T10:45:34.387Z,23.30
2019-04-22T10:48:08.261Z,23.71
2019-04-22T10:50:46.395Z,24.18
2019-04-22T10:53:21.701Z,24.05
2019-04-22T10:55:54.377Z,24.25
2019-04-22T10:58:26.713Z,24.21
2019-04-22T11:01:00.016Z,25.07
2019-04-22T11:03:33.061Z,24.69
2019-04-22T11:06:05.620Z,24.92
2019-04-22T11:08:44.474Z,24.92
2019-04-22T11:11:26.221Z,24.92
2019-04-22T11:13:51.902Z,23.96
2019-04-22T11:16:27.870Z,25.33
2019-04-22T11:19:03.622Z,24.87
2019-04-22T11:21:35.975Z,25.53
2019-04-22T11:24:08.621Z,24.50
2019-04-22T11:26:43.048Z,24.32
2019-04-22T11:29:21.510Z,25.66
2019-04-22T11:32:02.197Z,25.66
2019-04-22T11:34:37.632Z,25.26
2019-04-22T11:37:18.603Z,23.73
2019-04-22T11:40:04.860Z,25.01
2019-04-22T11:42:32.305Z,24.75
2019-04-22T11:45:09.031Z,25.64
2019-04-22T11:47:41.453Z,24.70
2019-04-22T11:50:21.815Z,25.50
2019-04-22T11:52:55.216Z,25.60
2019-04-22T11:55:35.082Z,25.45
2019-04-22T11:58:15.261Z,26.86
2019-04-22T12:00:49.408Z,26.49
2019-04-22T12:03:39.988Z,25.21
2019-04-22T12:06:22.040Z,24.05
2019-04-22T12:08:50.067Z,22.56
2019-04-22T12:11:22.855Z,20.91
2019-04-22T12:14:00.235Z,20.93
2019-04-22T12:16:35.082Z,21.12
2019-04-22T12:19:09.225Z,23.47
2019-04-22T12:21:47.001Z,25.24
2019-04-22T12:24:19.603Z,26.02
2019-04-22T12:26:56.016Z,26.61
2019-04-22T12:29:31.027Z,26.70
2019-04-22T12:32:03.683Z,26.10
2019-04-22T12:34:39.783Z,26.95
2019-04-22T12:37:17.480Z,26.87
2019-04-22T12:39:45.413Z,26.35
2019-04-22T12:42:19.627Z,23.60
2019-04-22T12:45:02.417Z,23.60
2019-04-22T12:47:44.131Z,21.94
2019-04-22T12:50:27.267Z,20.53
2019-04-22T12:52:57.680Z,19.81
2019-04-22T12:55:26.332Z,22.27
2019-04-22T12:58:00.923Z,24.45
2019-04-22T13:00:38.551Z,26.26
2019-04-22T13:03:13.861Z,26.62
2019-04-22T13:05:49.488Z,27.55
2019-04-22T13:08:25.543Z,25.69
2019-04-22T13:11:06.814Z,26.13
2019-04-22T13:13:38.823Z,25.48
2019-04-22T13:16:20.718Z,25.87
2019-04-22T13:19:05.075Z,25.74
2019-04-22T13:21:38.448Z,24.13
2019-04-22T13:24:21.688Z,24.90
2019-04-22T13:27:08.860Z,22.84
2019-04-22T13:30:20.831Z,20.47
2019-04-22T13:32:54.805Z,20.73
2019-04-22T13:35:29.809Z,20.85
2019-04-22T13:38:02.022Z,20.03
2019-04-22T13:40:36.993Z,20.04
2019-04-22T13:43:09.132Z,23.16
2019-04-22T13:45:43.706Z,23.78
2019-04-22T13:48:33.269Z,24.65
2019-04-22T13:51:25.744Z,23.78
2019-04-22T13:54:12.642Z,23.37
2019-04-22T13:58:44.804Z,20.18
2019-04-22T14:01:06.967Z,20.17
2019-04-22T14:03:41.166Z,19.29
2019-04-22T14:06:14.399Z,19.50
2019-04-22T14:08:49.553Z,19.56
2019-04-22T14:11:32.404Z,19.43
2019-04-22T14:13:58.742Z,19.95
2019-04-22T14:16:31.356Z,20.29
2019-04-22T14:19:05.837Z,21.08
2019-04-22T14:21:38.890Z,22.50
2019-04-22T14:24:13.940Z,23.10
2019-04-22T14:26:58.889Z,22.43
2019-04-22T14:29:23.918Z,21.98
2019-04-22T14:32:05.244Z,21.67
2019-04-22T14:34:32.145Z,21.19
2019-04-22T14:37:09.957Z,21.49
2019-04-22T14:39:42.279Z,20.71
2019-04-22T14:44:08.382Z,19.28
2019-04-22T14:45:23.254Z,18.40
2019-04-22T14:47:48.809Z,17.94
2019-04-22T14:50:29.324Z,17.64
2019-04-22T14:53:08.072Z,17.40
2019-04-22T14:55:25.862Z,17.18
2019-04-22T14:57:59.127Z,16.89
2019-04-22T15:00:31.766Z,16.88
2019-04-22T15:03:05.880Z,16.77
2019-04-22T15:05:40.039Z,16.70
2019-04-22T15:08:13.373Z,16.61
2019-04-22T15:10:52.099Z,16.61
2019-04-22T15:13:25.258Z,16.52
2019-04-22T15:16:15.945Z,16.45
2019-04-22T15:18:59.899Z,16.40
2019-04-22T15:21:32.632Z,16.37
2019-04-22T15:24:22.980Z,16.43
2019-04-22T15:26:58.542Z,16.44
2019-04-22T15:29:31.616Z,16.48
2019-04-22T15:32:03.594Z,16.51
2019-04-22T15:34:36.651Z,16.53
2019-04-22T15:37:11.940Z,16.56
2019-04-22T15:39:45.713Z,16.51
2019-04-22T15:42:28.156Z,16.50
2019-04-22T15:44:55.846Z,16.49
2019-04-22T15:47:29.254Z,16.38
2019-04-22T15:50:02.029Z,16.40
2019-04-22T15:52:41.710Z,16.38
2019-04-22T15:55:09.100Z,16.47
2019-04-22T15:57:42.058Z,16.40
2019-04-22T16:00:29.365Z,16.38
2019-04-22T16:02:49.892Z,16.35
2019-04-22T16:05:22.570Z,16.34
2019-04-22T16:07:55.065Z,16.24
2019-04-22T16:10:30.492Z,16.17
2019-04-22T16:13:09.416Z,16.06
2019-04-22T16:15:36.324Z,16.00
2019-04-22T16:18:10.966Z,15.97
2019-04-22T16:21:00.144Z,15.85
2019-04-22T16:24:02.488Z,15.79
2019-04-22T16:26:46.503Z,15.81
2019-04-22T16:29:19.426Z,15.72
2019-04-22T16:31:51.732Z,15.80
2019-04-22T16:34:23.804Z,15.78
2019-04-22T16:36:56.718Z,15.69
2019-04-22T16:39:31.105Z,15.56
2019-04-22T16:42:02.710Z,15.46
2019-04-22T16:44:34.503Z,15.43
2019-04-22T16:47:08.048Z,15.39
2019-04-22T16:49:39.592Z,15.21
2019-04-22T16:52:14.270Z,15.11
2019-04-22T16:54:48.032Z,15.04
2019-04-22T16:57:21.879Z,15.04
2019-04-22T16:59:54.905Z,14.92
2019-04-22T17:02:47.032Z,14.83
2019-04-22T17:05:23.262Z,14.80
2019-04-22T17:07:56.363Z,14.69
2019-04-22T17:10:29.502Z,14.61
2019-04-22T17:13:07.239Z,14.50
2019-04-22T17:15:35.375Z,14.51
2019-04-22T17:18:07.733Z,14.61
2019-04-22T17:20:55.003Z,14.37
2019-04-22T17:23:33.889Z,14.19
2019-04-22T17:26:06.496Z,13.98
2019-04-22T17:28:39.642Z,13.94
2019-04-22T17:31:12.870Z,13.77
2019-04-22T17:33:44.802Z,13.61
2019-04-22T17:36:18.222Z,13.56
2019-04-22T17:39:00.047Z,13.41
2019-04-22T17:41:41.821Z,13.31
2019-04-22T17:44:32.282Z,13.24
2019-04-22T17:46:50.927Z,13.07
2019-04-22T17:49:38.317Z,13.06
2019-04-22T17:52:24.764Z,12.98
2019-04-22T17:57:24.130Z,12.92
2019-04-22T17:59:55.294Z,12.89
2019-04-22T18:02:26.845Z,12.79
2019-04-22T18:04:55.111Z,12.71
2019-04-22T18:07:42.982Z,12.70
2019-04-22T18:13:08.773Z,12.51
2019-04-22T18:15:40.409Z,12.38
2019-04-22T18:18:16.105Z,12.32
2019-04-22T18:20:35.017Z,12.19
2019-04-22T18:26:00.506Z,12.00
2019-04-22T18:28:37.651Z,11.67
2019-04-22T18:31:04.633Z,11.79
2019-04-22T18:33:39.757Z,11.74
2019-04-22T18:36:09.717Z,11.63
2019-04-22T18:38:52.969Z,11.58
2019-04-22T18:41:21.165Z,11.54
2019-04-22T18:44:01.846Z,11.46
2019-04-22T18:46:31.479Z,11.37
2019-04-22T18:49:00.674Z,11.34
2019-04-22T18:51:46.403Z,11.20
2019-04-22T18:54:36.671Z,11.10
2019-04-22T18:57:10.026Z,10.94
2019-04-22T18:59:31.224Z,10.80
2019-04-22T19:02:05.373Z,10.71
2019-04-22T19:04:44.615Z,10.65
2019-04-22T19:07:35.626Z,10.63
2019-04-22T19:10:09.862Z,10.53
2019-04-22T19:13:00.659Z,10.51
2019-04-22T19:15:19.283Z,10.51
2019-04-22T19:18:01.847Z,10.36
2019-04-22T19:20:34.324Z,10.34
2019-04-22T19:23:06.819Z,10.35
2019-04-22T19:25:29.389Z,10.32
2019-04-22T19:28:19.135Z,10.53
2019-04-22T19:30:41.510Z,10.48
2019-04-22T19:33:19.102Z,10.48
2019-04-22T19:35:43.537Z,10.66
2019-04-22T19:38:14.101Z,10.64
2019-04-22T19:43:33.117Z,10.52
2019-04-22T19:46:02.198Z,10.34
2019-04-22T19:48:57.730Z,10.12
2019-04-22T19:51:18.709Z,9.89
2019-04-22T19:53:47.148Z,9.87
2019-04-22T19:56:14.780Z,9.73
2019-04-22T19:58:49.262Z,9.69
2019-04-22T20:01:41.737Z,9.65
2019-04-22T20:04:48.828Z,9.55
2019-04-22T20:07:05.916Z,9.64
2019-04-22T20:09:43.858Z,9.60
2019-04-22T20:12:15.402Z,9.58
2019-04-22T20:14:45.588Z,9.62
2019-04-22T20:17:26.005Z,9.60
2019-04-22T20:20:18.111Z,9.63
2019-04-22T20:22:29.637Z,9.74
2019-04-22T20:24:53.854Z,9.72
2019-04-22T20:27:47.226Z,9.58
2019-04-22T20:30:23.462Z,9.49
2019-04-22T20:32:47.678Z,9.46
2019-04-22T20:35:28.067Z,9.38
2019-04-22T20:38:07.555Z,9.49
2019-04-22T20:40:38.772Z,9.54
2019-04-22T20:43:17.635Z,9.56
2019-04-22T20:45:46.736Z,9.53
2019-04-22T20:48:08.571Z,9.38
2019-04-22T20:50:53.021Z,9.31
2019-04-22T20:53:30.187Z,9.30
2019-04-22T20:56:00.763Z,9.24
2019-04-22T20:58:34.152Z,9.28
2019-04-22T21:01:02.701Z,9.35
2019-04-22T21:03:33.280Z,9.30
2019-04-22T21:06:16.549Z,9.23
2019-04-22T21:08:54.428Z,9.16
2019-04-22T21:11:27.797Z,9.11
2019-04-22T21:14:01.695Z,8.95
2019-04-22T21:16:40.017Z,8.82
2019-04-22T21:19:18.681Z,8.69
2019-04-22T21:21:46.985Z,8.65
2019-04-22T21:24:09.355Z,8.61
2019-04-22T21:26:47.091Z,8.65
2019-04-22T21:29:20.543Z,8.61
2019-04-22T21:32:04.206Z,8.53
2019-04-22T21:34:40.644Z,8.47
2019-04-22T21:37:15.963Z,8.53
2019-04-22T21:39:38.021Z,8.47
2019-04-22T21:42:14.238Z,8.41
2019-04-22T21:44:45.673Z,8.39
2019-04-22T21:47:22.427Z,8.47
2019-04-22T21:50:07.515Z,8.47
2019-04-22T21:52:27.578Z,8.48
2019-04-22T21:55:07.526Z,8.37
2019-04-22T21:57:46.128Z,8.26
2019-04-22T22:00:15.100Z,8.19
2019-04-22T22:02:45.777Z,8.19
2019-04-22T22:05:10.154Z,8.06
2019-04-22T22:07:34.536Z,8.05
2019-04-22T22:10:31.078Z,8.04
2019-04-22T22:13:06.678Z,8.08
2019-04-22T22:15:36.282Z,7.97
2019-04-22T22:18:10.220Z,7.98
2019-04-22T22:21:00.981Z,8.08
2019-04-22T22:23:28.016Z,8.24
2019-04-22T22:25:50.855Z,8.23
2019-04-22T22:28:40.267Z,8.22
2019-04-22T22:31:10.362Z,8.14
2019-04-22T22:33:35.148Z,8.09
2019-04-22T22:36:05.063Z,8.04
2019-04-22T22:38:35.110Z,7.96
2019-04-22T22:40:54.064Z,7.77
2019-04-22T22:43:35.357Z,7.63
2019-04-22T22:46:15.057Z,7.51
2019-04-22T22:49:00.292Z,7.44
2019-04-22T22:51:39.946Z,7.36
2019-04-22T22:54:03.880Z,7.37
2019-04-22T22:56:48.609Z,7.33
2019-04-22T22:59:08.218Z,7.33
2019-04-22T23:01:46.888Z,7.52
2019-04-22T23:04:23.107Z,7.72
2019-04-22T23:06:55.821Z,7.57
2019-04-22T23:09:27.045Z,7.55
2019-04-22T23:14:38.271Z,7.25
2019-04-22T23:16:55.921Z,7.20
2019-04-22T23:19:21.843Z,7.15
2019-04-22T23:21:58.830Z,7.35
2019-04-22T23:24:58.534Z,7.50
2019-04-22T23:27:47.674Z,7.41
2019-04-22T23:30:23.118Z,7.45
2019-04-22T23:33:03.351Z,7.46
2019-04-22T23:35:54.092Z,7.40
2019-04-22T23:38:35.783Z,7.28
2019-04-22T23:41:24.567Z,7.08
2019-04-22T23:43:53.785Z,7.11
2019-04-22T23:46:14.823Z,7.22
2019-04-22T23:49:08.572Z,7.14
2019-04-22T23:51:51.124Z,7.09
2019-04-22T23:54:24.255Z,7.09
2019-04-22T23:56:49.423Z,6.86
2019-04-22T23:59:41.383Z,7.26
